Time;durP1;ratioP1;P1;durP2;ratioP2;P2;SDS_P1;SDS_P2;PMS_P1;PMS_P2;Temp;Humidity;BMP_temperature;BMP_pressure;BME280_temperature;BME280_humidity;BME280_pressure;Samples;Min_cycle;Max_cycle;Signal;HPM_P1;HPM_P2
2023/05/20 00:02:11;;;;;;;8.35;3.30;;;11.00;99.90;;;;;;5075501;28;20036;-83
2023/05/20 00:04:39;;;;;;;8.15;3.45;;;10.90;99.90;;;;;;5058995;28;20036;-82
2023/05/20 00:07:06;;;;;;;6.07;3.25;;;10.90;99.90;;;;;;5057264;28;20512;-81
2023/05/20 00:09:32;;;;;;;7.55;3.83;;;10.90;99.90;;;;;;5058899;28;20047;-81
2023/05/20 00:12:00;;;;;;;9.20;3.40;;;10.90;99.90;;;;;;5075419;28;20154;-81
2023/05/20 00:14:26;;;;;;;11.38;4.13;;;10.80;99.90;;;;;;5059001;28;20123;-81
2023/05/20 00:16:53;;;;;;;11.88;3.63;;;10.80;99.90;;;;;;5058629;28;20123;-82
2023/05/20 00:19:20;;;;;;;8.05;3.70;;;10.80;99.90;;;;;;5040896;28;20044;-81
2023/05/20 00:21:46;;;;;;;6.35;3.58;;;10.80;99.90;;;;;;5055115;28;20123;-81
2023/05/20 00:24:15;;;;;;;7.72;3.58;;;10.90;99.90;;;;;;5055085;28;20048;-81
2023/05/20 00:26:41;;;;;;;10.35;3.63;;;10.80;99.90;;;;;;5071605;28;20120;-81
2023/05/20 00:29:08;;;;;;;9.15;3.88;;;10.80;99.90;;;;;;5054602;28;20619;-81
2023/05/20 00:31:35;;;;;;;12.30;4.10;;;10.70;99.90;;;;;;5055040;28;20500;-82
2023/05/20 00:34:01;;;;;;;9.23;3.53;;;10.70;99.90;;;;;;5038425;28;20043;-81
2023/05/20 00:36:28;;;;;;;7.60;3.50;;;10.70;99.90;;;;;;5038772;28;20493;-82
2023/05/20 00:38:54;;;;;;;9.65;3.72;;;10.70;99.90;;;;;;5061636;28;20810;-83
2023/05/20 00:41:21;;;;;;;9.63;3.80;;;10.60;99.90;;;;;;5074761;28;20131;-82
2023/05/20 00:43:51;;;;;;;11.18;3.45;;;10.60;99.90;;;;;;5074939;28;20089;-81
2023/05/20 00:46:18;;;;;;;8.18;3.45;;;10.60;99.90;;;;;;5075185;28;20043;-81
2023/05/20 00:48:45;;;;;;;9.45;3.65;;;10.60;99.90;;;;;;5058373;28;20044;-82
2023/05/20 00:51:13;;;;;;;10.38;3.42;;;10.60;99.90;;;;;;5050866;28;20087;-81
2023/05/20 00:53:41;;;;;;;6.30;3.17;;;10.60;99.90;;;;;;5071030;28;20480;-81
2023/05/20 00:56:07;;;;;;;10.45;3.85;;;10.60;99.90;;;;;;5054245;28;20048;-81
2023/05/20 00:58:36;;;;;;;9.93;4.10;;;10.50;99.90;;;;;;5054498;28;20048;-82
2023/05/20 01:01:04;;;;;;;8.10;3.85;;;10.50;99.90;;;;;;5054246;28;20045;-81
2023/05/20 01:03:31;;;;;;;6.97;3.78;;;10.50;99.90;;;;;;5038087;28;20038;-81
2023/05/20 01:05:57;;;;;;;9.80;3.72;;;10.50;99.90;;;;;;5054755;28;20041;-82
2023/05/20 01:08:25;;;;;;;9.10;3.65;;;10.50;99.90;;;;;;5054638;28;20143;-81
2023/05/20 01:11:06;;;;;;;8.35;3.47;;;10.50;99.90;;;;;;5068722;28;20039;-81
2023/05/20 01:13:43;;;;;;;8.25;3.42;;;10.50;99.90;;;;;;5090905;28;20222;-81
2023/05/20 01:16:10;;;;;;;12.48;3.72;;;10.50;99.90;;;;;;5090302;28;20040;-82
2023/05/20 01:18:39;;;;;;;10.43;3.85;;;10.60;99.90;;;;;;5074086;28;20565;-82
2023/05/20 01:21:09;;;;;;;8.57;3.90;;;10.60;99.90;;;;;;5077021;28;20033;-81
2023/05/20 01:23:41;;;;;;;9.70;3.40;;;10.70;99.90;;;;;;5070760;28;20091;-81
2023/05/20 01:26:12;;;;;;;7.55;3.38;;;10.70;99.90;;;;;;5037938;28;20041;-81
2023/05/20 01:28:39;;;;;;;6.20;3.50;;;10.70;99.90;;;;;;5070444;28;20040;-82
2023/05/20 01:31:25;;;;;;;13.88;3.70;;;10.70;99.90;;;;;;5062484;28;20052;-81
2023/05/20 01:33:58;;;;;;;13.15;4.15;;;10.70;99.90;;;;;;5090383;28;20170;-81
2023/05/20 01:36:27;;;;;;;8.48;3.53;;;10.70;99.90;;;;;;5073445;28;20511;-81
2023/05/20 01:38:55;;;;;;;8.80;3.63;;;10.80;99.90;;;;;;5089989;28;20454;-82
2023/05/20 01:41:24;;;;;;;12.35;3.50;;;10.80;99.90;;;;;;5073504;28;20125;-81
2023/05/20 01:43:51;;;;;;;9.02;3.83;;;10.80;99.90;;;;;;5090703;28;20079;-81
2023/05/20 01:46:17;;;;;;;9.07;3.17;;;10.80;99.90;;;;;;5073443;28;20072;-82
2023/05/20 01:48:44;;;;;;;10.35;3.50;;;10.70;99.90;;;;;;5073872;28;20040;-82
2023/05/20 01:51:11;;;;;;;5.80;3.03;;;10.80;99.90;;;;;;5084860;28;20463;-81
2023/05/20 01:53:38;;;;;;;9.13;3.47;;;10.70;99.90;;;;;;5040065;28;20124;-82
2023/05/20 01:56:06;;;;;;;7.65;3.10;;;10.80;99.90;;;;;;5073659;28;20114;-81
2023/05/20 01:58:32;;;;;;;6.13;3.40;;;10.80;99.90;;;;;;5073651;28;20036;-81
2023/05/20 02:01:00;;;;;;;12.65;3.33;;;10.80;99.90;;;;;;5073686;28;20097;-81
2023/05/20 02:03:27;;;;;;;9.75;3.40;;;10.80;99.90;;;;;;5073648;28;20072;-82
2023/05/20 02:05:53;;;;;;;8.35;3.22;;;10.80;99.90;;;;;;5073313;28;20083;-81
2023/05/20 02:08:20;;;;;;;7.95;3.15;;;10.80;99.90;;;;;;5073282;28;20086;-81
2023/05/20 02:10:48;;;;;;;8.38;3.10;;;10.80;99.90;;;;;;5073829;28;20132;-82
2023/05/20 02:13:15;;;;;;;7.20;3.30;;;10.80;99.90;;;;;;5072278;28;20566;-81
2023/05/20 02:15:41;;;;;;;9.20;3.47;;;10.80;99.90;;;;;;5057033;28;20040;-81
2023/05/20 02:18:08;;;;;;;8.93;3.65;;;10.70;99.90;;;;;;5073332;28;20315;-81
2023/05/20 02:20:36;;;;;;;8.23;3.22;;;10.70;99.90;;;;;;5056378;28;20040;-82
2023/05/20 02:23:04;;;;;;;7.93;3.22;;;10.60;99.90;;;;;;5088253;28;20037;-82
2023/05/20 02:25:31;;;;;;;12.65;3.55;;;10.60;99.90;;;;;;5070139;28;20463;-81
2023/05/20 02:27:58;;;;;;;7.90;3.28;;;10.60;99.90;;;;;;5052988;28;20128;-81
2023/05/20 02:30:26;;;;;;;11.02;3.45;;;10.60;99.90;;;;;;5036235;28;20129;-81
2023/05/20 02:32:52;;;;;;;6.70;2.90;;;10.60;99.90;;;;;;5069343;28;20102;-81
2023/05/20 02:35:19;;;;;;;7.57;2.90;;;10.60;99.90;;;;;;5036234;28;20136;-81
2023/05/20 02:37:47;;;;;;;5.95;3.10;;;10.60;99.90;;;;;;5036549;28;20409;-81
2023/05/20 02:40:13;;;;;;;8.20;3.17;;;10.60;99.90;;;;;;5052924;28;20115;-82
2023/05/20 02:42:40;;;;;;;6.32;3.35;;;10.60;99.90;;;;;;5036471;28;20075;-81
2023/05/20 02:45:07;;;;;;;5.22;2.95;;;10.60;99.90;;;;;;5105708;28;20040;-81
2023/05/20 02:47:34;;;;;;;6.95;3.10;;;10.60;99.90;;;;;;5056193;28;20416;-81
2023/05/20 02:50:01;;;;;;;8.52;3.47;;;10.60;99.90;;;;;;5056154;28;20041;-81
2023/05/20 02:52:27;;;;;;;7.07;2.97;;;10.60;99.90;;;;;;5072597;28;20485;-82
2023/05/20 02:54:55;;;;;;;8.40;3.15;;;10.60;99.90;;;;;;5072374;28;20552;-82
2023/05/20 02:57:22;;;;;;;8.63;3.30;;;10.60;99.90;;;;;;5089100;28;20044;-82
2023/05/20 02:59:49;;;;;;;6.53;3.25;;;10.60;99.90;;;;;;5089634;28;20044;-82
2023/05/20 03:02:16;;;;;;;5.72;2.67;;;10.60;99.90;;;;;;5089292;28;20062;-82
2023/05/20 03:04:45;;;;;;;7.05;2.83;;;10.60;99.90;;;;;;5062212;28;20099;-82
2023/05/20 03:07:12;;;;;;;8.07;2.53;;;10.60;99.90;;;;;;5036909;28;20041;-82
2023/05/20 03:09:38;;;;;;;5.25;2.85;;;10.60;99.90;;;;;;5068638;28;20041;-82
2023/05/20 03:12:05;;;;;;;6.93;3.00;;;10.70;99.90;;;;;;5052480;28;20033;-82
2023/05/20 03:14:32;;;;;;;7.22;2.83;;;10.70;99.90;;;;;;5035996;28;20048;-82
2023/05/20 03:16:59;;;;;;;6.03;2.90;;;10.60;99.90;;;;;;5052768;28;20124;-82
2023/05/20 03:19:25;;;;;;;4.75;2.42;;;10.60;99.90;;;;;;5038056;28;20029;-81
2023/05/20 03:21:52;;;;;;;5.32;2.60;;;10.60;99.90;;;;;;5055828;28;20451;-82
2023/05/20 03:24:19;;;;;;;5.10;2.70;;;10.60;99.90;;;;;;5039866;28;20048;-82
2023/05/20 03:26:45;;;;;;;7.57;2.85;;;10.60;99.90;;;;;;5058991;28;20037;-82
2023/05/20 03:29:12;;;;;;;6.55;2.60;;;10.60;99.90;;;;;;5076267;28;20475;-82
2023/05/20 03:31:39;;;;;;;5.63;2.72;;;10.60;99.90;;;;;;5075385;28;20053;-82
2023/05/20 03:34:07;;;;;;;5.95;2.35;;;10.60;99.90;;;;;;5059083;28;20096;-82
2023/05/20 03:36:33;;;;;;;5.47;2.55;;;10.60;99.90;;;;;;5076118;28;20812;-82
2023/05/20 03:39:00;;;;;;;4.15;2.58;;;10.60;99.90;;;;;;5056008;28;20036;-82
2023/05/20 03:41:27;;;;;;;5.88;2.45;;;10.60;99.90;;;;;;5072372;28;20511;-82
2023/05/20 03:43:54;;;;;;;5.40;1.90;;;10.60;99.90;;;;;;5039049;28;20049;-82
2023/05/20 03:46:20;;;;;;;4.60;2.20;;;10.70;99.90;;;;;;5055926;28;20049;-82
2023/05/20 03:48:47;;;;;;;5.10;2.17;;;10.70;99.90;;;;;;5072404;28;20041;-82
2023/05/20 03:51:14;;;;;;;4.60;2.17;;;10.70;99.90;;;;;;5055777;28;20134;-82
2023/05/20 03:53:41;;;;;;;4.15;2.13;;;10.70;99.90;;;;;;5055878;28;20171;-82
2023/05/20 03:56:07;;;;;;;5.15;2.30;;;10.70;99.90;;;;;;5055796;28;20049;-82
2023/05/20 03:58:37;;;;;;;5.00;1.92;;;10.70;99.90;;;;;;5048547;28;20044;-82
2023/05/20 04:01:04;;;;;;;4.53;2.08;;;10.80;99.90;;;;;;5075955;28;20048;-82
2023/05/20 04:03:30;;;;;;;4.55;1.90;;;10.80;99.90;;;;;;5091928;28;20043;-82
2023/05/20 04:05:57;;;;;;;6.10;2.30;;;10.80;99.90;;;;;;5107001;28;20127;-82
2023/05/20 04:08:25;;;;;;;5.32;1.92;;;10.80;99.90;;;;;;5055362;28;20060;-82
2023/05/20 04:10:55;;;;;;;5.13;1.90;;;10.70;99.90;;;;;;5071783;28;20076;-82
2023/05/20 04:13:24;;;;;;;6.30;2.20;;;10.70;99.90;;;;;;5055579;28;20032;-82
2023/05/20 04:15:51;;;;;;;3.78;1.85;;;10.70;99.90;;;;;;5071560;28;20037;-82
2023/05/20 04:18:18;;;;;;;5.45;2.08;;;10.70;99.90;;;;;;5039384;28;20132;-82
2023/05/20 04:20:45;;;;;;;5.82;1.85;;;10.70;99.90;;;;;;5055015;28;20127;-82
2023/05/20 04:23:12;;;;;;;4.07;1.60;;;10.70;99.90;;;;;;5054992;28;20448;-82
2023/05/20 04:25:40;;;;;;;3.00;1.60;;;10.70;99.90;;;;;;5038251;28;20048;-81
2023/05/20 04:28:09;;;;;;;4.10;1.60;;;10.70;99.90;;;;;;5051237;28;20114;-82
2023/05/20 04:30:36;;;;;;;6.35;1.60;;;10.70;99.90;;;;;;5058490;28;20386;-81
2023/05/20 04:33:02;;;;;;;4.57;1.80;;;10.70;99.90;;;;;;5075243;28;20052;-82
2023/05/20 04:35:29;;;;;;;4.68;1.60;;;10.70;99.90;;;;;;5075115;28;20124;-82
2023/05/20 04:37:56;;;;;;;4.40;1.52;;;10.70;99.90;;;;;;5057865;28;20094;-82
2023/05/20 04:40:22;;;;;;;4.05;1.50;;;10.70;99.90;;;;;;5091627;28;20041;-82
2023/05/20 04:42:49;;;;;;;3.08;1.30;;;10.70;99.90;;;;;;5074904;28;20044;-82
2023/05/20 04:45:17;;;;;;;2.95;1.30;;;10.80;99.90;;;;;;5058383;28;20044;-82
2023/05/20 04:47:44;;;;;;;2.90;1.35;;;10.80;99.90;;;;;;5073576;28;20111;-82
2023/05/20 04:50:12;;;;;;;3.42;1.40;;;10.80;99.90;;;;;;5054935;28;20041;-82
2023/05/20 04:52:40;;;;;;;4.00;1.60;;;10.90;99.90;;;;;;5054403;28;20127;-82
2023/05/20 04:55:09;;;;;;;3.47;1.42;;;10.90;99.90;;;;;;5054458;28;20140;-82
2023/05/20 04:57:38;;;;;;;3.00;1.50;;;11.00;99.90;;;;;;5070884;28;20401;-81
2023/05/20 05:00:06;;;;;;;2.88;1.30;;;11.00;99.90;;;;;;5074825;28;20048;-82
2023/05/20 05:02:34;;;;;;;2.83;1.30;;;11.10;99.90;;;;;;5108171;28;20048;-82
2023/05/20 05:05:01;;;;;;;4.50;1.50;;;11.00;99.90;;;;;;5073926;28;20041;-82
2023/05/20 05:07:27;;;;;;;5.07;1.25;;;11.10;99.90;;;;;;5074277;28;20489;-82
2023/05/20 05:09:54;;;;;;;2.50;1.02;;;11.10;99.90;;;;;;5073982;28;20071;-82
2023/05/20 05:12:21;;;;;;;3.05;1.40;;;11.00;99.90;;;;;;5057806;28;20040;-82
2023/05/20 05:14:48;;;;;;;4.53;1.30;;;11.00;99.90;;;;;;5073955;28;20493;-82
2023/05/20 05:17:14;;;;;;;3.33;1.40;;;11.10;99.90;;;;;;5074073;28;20032;-82
2023/05/20 05:19:41;;;;;;;4.15;1.50;;;11.10;99.90;;;;;;5065211;28;20040;-82
2023/05/20 05:22:08;;;;;;;4.93;1.58;;;11.10;99.90;;;;;;5053891;28;20037;-82
2023/05/20 05:24:34;;;;;;;3.90;1.45;;;11.10;99.90;;;;;;5053688;28;20512;-82
2023/05/20 05:27:01;;;;;;;2.45;1.30;;;11.20;99.90;;;;;;5037353;28;20116;-82
2023/05/20 05:29:28;;;;;;;3.33;1.35;;;11.20;99.90;;;;;;5054179;28;20037;-82
2023/05/20 05:31:54;;;;;;;2.60;1.20;;;11.20;99.90;;;;;;5044885;28;20041;-82
2023/05/20 05:34:21;;;;;;;3.85;1.55;;;11.20;99.90;;;;;;5062750;28;20044;-82
2023/05/20 05:36:48;;;;;;;2.55;1.20;;;11.20;99.90;;;;;;5053670;28;20098;-82
2023/05/20 05:39:15;;;;;;;4.88;1.30;;;11.20;99.90;;;;;;5064504;28;20037;-83
2023/05/20 05:41:41;;;;;;;3.83;1.50;;;11.20;99.90;;;;;;5052069;28;20040;-82
2023/05/20 05:44:08;;;;;;;4.78;1.40;;;11.30;99.90;;;;;;5053547;28;20048;-82
2023/05/20 05:46:35;;;;;;;2.85;1.33;;;11.30;99.90;;;;;;5037655;28;20037;-82
2023/05/20 05:49:01;;;;;;;3.67;1.50;;;11.30;99.90;;;;;;5053459;28;20068;-82
2023/05/20 05:51:29;;;;;;;4.47;1.50;;;11.30;99.90;;;;;;5037030;28;20037;-83
2023/05/20 05:53:56;;;;;;;3.20;1.35;;;11.40;99.90;;;;;;5037355;28;20072;-82
2023/05/20 05:56:23;;;;;;;3.35;1.50;;;11.40;99.90;;;;;;5053305;28;20091;-82
2023/05/20 05:58:49;;;;;;;3.95;1.52;;;11.40;99.90;;;;;;5069870;28;20095;-82
2023/05/20 06:01:16;;;;;;;4.57;1.30;;;11.40;99.90;;;;;;5062473;28;20051;-82
2023/05/20 06:03:43;;;;;;;2.55;1.30;;;11.50;99.90;;;;;;5048700;28;20045;-81
2023/05/20 06:06:09;;;;;;;3.13;1.50;;;11.50;99.90;;;;;;5037011;28;20048;-81
2023/05/20 06:08:36;;;;;;;3.35;1.50;;;11.60;99.90;;;;;;5036841;28;20041;-82
2023/05/20 06:11:03;;;;;;;5.38;1.50;;;11.60;99.90;;;;;;5040667;28;20040;-81
2023/05/20 06:13:29;;;;;;;2.85;1.33;;;11.70;99.90;;;;;;5089641;28;20079;-82
2023/05/20 06:15:56;;;;;;;3.47;1.08;;;11.70;99.90;;;;;;5072274;28;20389;-82
2023/05/20 06:18:23;;;;;;;3.20;1.35;;;11.80;99.90;;;;;;5055704;28;20040;-82
2023/05/20 06:20:56;;;;;;;2.97;1.23;;;11.80;99.90;;;;;;5039139;28;20040;-81
2023/05/20 06:23:23;;;;;;;3.65;1.30;;;11.90;99.90;;;;;;5052783;28;20131;-82
2023/05/20 06:25:50;;;;;;;3.47;1.40;;;12.00;99.90;;;;;;5069156;28;20124;-82
2023/05/20 06:28:17;;;;;;;3.20;1.35;;;12.00;99.90;;;;;;5052880;28;20084;-82
2023/05/20 06:30:44;;;;;;;4.22;1.40;;;12.10;99.90;;;;;;5082736;28;20127;-82
2023/05/20 06:33:10;;;;;;;5.05;1.48;;;12.20;99.90;;;;;;5044994;28;20178;-83
2023/05/20 06:35:37;;;;;;;2.85;1.27;;;12.30;99.90;;;;;;5053948;28;20043;-83
2023/05/20 06:38:04;;;;;;;2.67;1.30;;;12.40;99.90;;;;;;5036375;28;20135;-83
2023/05/20 06:40:31;;;;;;;4.25;1.40;;;12.40;99.90;;;;;;5036559;28;20048;-83
2023/05/20 06:42:58;;;;;;;2.75;1.00;;;12.60;99.90;;;;;;5047186;28;20036;-83
2023/05/20 06:45:25;;;;;;;4.25;1.30;;;12.60;99.90;;;;;;5089219;28;20052;-83
2023/05/20 06:47:53;;;;;;;4.40;1.48;;;12.70;99.90;;;;;;5072753;28;20036;-82
2023/05/20 06:50:19;;;;;;;4.07;1.58;;;12.80;99.90;;;;;;5072904;28;20044;-83
2023/05/20 06:52:46;;;;;;;4.75;1.40;;;12.90;99.90;;;;;;5089593;28;20029;-83
2023/05/20 06:55:13;;;;;;;3.03;1.50;;;13.00;99.90;;;;;;5072462;28;20122;-83
2023/05/20 06:57:40;;;;;;;4.97;1.20;;;13.10;99.90;;;;;;5060445;28;20043;-83
2023/05/20 07:00:07;;;;;;;5.18;1.40;;;13.20;99.90;;;;;;5075493;28;20041;-83
2023/05/20 07:02:34;;;;;;;3.30;1.20;;;13.30;99.90;;;;;;5077532;28;20049;-84
2023/05/20 07:05:01;;;;;;;3.08;1.40;;;13.40;99.90;;;;;;5042791;28;20056;-83
2023/05/20 07:07:28;;;;;;;3.08;1.40;;;13.50;99.90;;;;;;5086128;28;20127;-84
2023/05/20 07:09:54;;;;;;;3.33;1.50;;;13.60;99.90;;;;;;5051230;28;20048;-83
2023/05/20 07:12:21;;;;;;;4.68;1.50;;;13.60;99.90;;;;;;5059335;28;20044;-83
2023/05/20 07:14:48;;;;;;;2.33;1.13;;;13.70;99.90;;;;;;5072542;28;20128;-84
2023/05/20 07:17:14;;;;;;;4.47;1.48;;;13.80;99.90;;;;;;5042444;28;20033;-82
2023/05/20 07:19:41;;;;;;;5.28;1.20;;;13.80;99.90;;;;;;5076868;28;20035;-83
2023/05/20 07:22:08;;;;;;;5.55;1.80;;;13.90;99.90;;;;;;5078496;28;20108;-83
2023/05/20 07:24:35;;;;;;;3.28;1.40;;;14.00;99.90;;;;;;5093477;28;20498;-83
2023/05/20 07:27:02;;;;;;;4.47;1.40;;;14.10;99.90;;;;;;5042569;28;20497;-83
2023/05/20 07:29:30;;;;;;;4.65;1.45;;;14.20;99.90;;;;;;5068115;28;20120;-83
2023/05/20 07:31:56;;;;;;;4.30;1.52;;;14.20;99.90;;;;;;5093739;28;20077;-83
2023/05/20 07:34:23;;;;;;;4.32;1.50;;;14.30;99.90;;;;;;5078510;28;20072;-83
2023/05/20 07:36:50;;;;;;;3.85;1.30;;;14.50;99.90;;;;;;5058165;28;20401;-83
2023/05/20 07:39:17;;;;;;;3.10;1.30;;;14.60;99.90;;;;;;5068600;28;20493;-84
2023/05/20 07:41:44;;;;;;;3.88;1.50;;;14.60;99.90;;;;;;5095726;28;20044;-83
2023/05/20 07:44:12;;;;;;;3.45;1.60;;;14.70;99.90;;;;;;5094501;28;20055;-83
2023/05/20 07:46:39;;;;;;;3.58;1.48;;;14.80;99.90;;;;;;5062432;28;20441;-84
2023/05/20 07:49:06;;;;;;;5.90;1.55;;;14.80;99.90;;;;;;5078272;28;20041;-83
2023/05/20 07:51:32;;;;;;;7.35;1.50;;;14.90;99.90;;;;;;5078556;28;20146;-83
2023/05/20 07:54:00;;;;;;;3.95;1.42;;;15.00;99.90;;;;;;5077904;28;20059;-82
2023/05/20 07:56:27;;;;;;;5.28;1.60;;;15.10;99.90;;;;;;5061163;28;20053;-83
2023/05/20 07:58:59;;;;;;;6.70;1.60;;;15.10;99.90;;;;;;5059148;28;20041;-82
2023/05/20 08:01:27;;;;;;;4.15;1.63;;;15.30;99.90;;;;;;5076068;28;20036;-83
2023/05/20 08:03:54;;;;;;;3.80;1.50;;;15.40;99.90;;;;;;5056749;28;20541;-83
2023/05/20 08:06:23;;;;;;;4.43;1.70;;;15.50;99.90;;;;;;5085161;28;20040;-83
2023/05/20 08:08:50;;;;;;;3.78;1.48;;;15.60;99.90;;;;;;5094053;28;20691;-82
2023/05/20 08:11:16;;;;;;;3.03;1.52;;;15.60;99.90;;;;;;5070114;28;20489;-84
2023/05/20 08:13:43;;;;;;;8.23;1.60;;;15.70;99.90;;;;;;5051931;28;20051;-82
2023/05/20 08:16:10;;;;;;;4.25;1.85;;;15.80;99.90;;;;;;5047431;28;20033;-82
2023/05/20 08:18:36;;;;;;;4.57;1.45;;;15.90;99.90;;;;;;5070092;28;20479;-82
2023/05/20 08:21:06;;;;;;;6.25;1.75;;;16.00;99.90;;;;;;5077293;28;20041;-82
2023/05/20 08:23:34;;;;;;;7.75;1.83;;;16.10;99.90;;;;;;5056777;28;20127;-82
2023/05/20 08:26:03;;;;;;;5.43;1.60;;;16.10;99.90;;;;;;5080892;28;20044;-81
2023/05/20 08:28:30;;;;;;;4.63;1.90;;;16.20;99.90;;;;;;5087236;28;20037;-82
2023/05/20 08:31:00;;;;;;;4.93;2.03;;;16.30;99.90;;;;;;5054643;28;20052;-82
2023/05/20 08:33:27;;;;;;;2.78;1.60;;;16.40;99.90;;;;;;5086226;28;20039;-83
2023/05/20 08:35:53;;;;;;;5.03;1.77;;;16.60;99.90;;;;;;5104129;28;20041;-81
2023/05/20 08:38:20;;;;;;;4.72;1.77;;;16.60;99.90;;;;;;5088022;28;20044;-82
2023/05/20 08:40:53;;;;;;;4.03;1.55;;;16.70;99.90;;;;;;5054504;28;20144;-82
2023/05/20 08:43:21;;;;;;;5.68;1.60;;;16.80;99.90;;;;;;5103991;28;20103;-81
2023/05/20 08:45:48;;;;;;;3.90;1.85;;;16.90;99.90;;;;;;5106612;28;20381;-82
2023/05/20 08:48:17;;;;;;;3.85;1.80;;;17.00;99.90;;;;;;5074075;28;20047;-81
2023/05/20 08:50:49;;;;;;;3.88;1.63;;;17.10;99.90;;;;;;5087129;28;20045;-83
2023/05/20 08:53:20;;;;;;;6.25;1.83;;;17.10;99.90;;;;;;5088282;28;20072;-82
2023/05/20 08:55:56;;;;;;;4.47;2.15;;;17.20;99.90;;;;;;5092717;28;20114;-82
2023/05/20 08:58:24;;;;;;;6.82;1.98;;;17.30;99.90;;;;;;5107743;28;20049;-82
2023/05/20 09:00:51;;;;;;;3.90;1.63;;;17.40;99.90;;;;;;5074545;28;20488;-82
2023/05/20 09:03:22;;;;;;;5.40;2.05;;;17.40;99.90;;;;;;5090580;28;20046;-82
2023/05/20 09:05:49;;;;;;;4.32;1.80;;;17.50;99.90;;;;;;5101810;28;20072;-83
2023/05/20 09:08:16;;;;;;;3.65;1.83;;;17.50;99.90;;;;;;5073643;28;20741;-83
2023/05/20 09:10:42;;;;;;;5.00;1.70;;;17.60;99.90;;;;;;5054326;28;20505;-83
2023/05/20 09:13:10;;;;;;;3.10;1.60;;;17.80;99.90;;;;;;5070325;28;20029;-83
2023/05/20 09:15:37;;;;;;;3.88;1.80;;;17.90;99.90;;;;;;5088944;28;20040;-83
2023/05/20 09:18:08;;;;;;;7.10;2.05;;;17.90;99.90;;;;;;5053874;28;20071;-83
2023/05/20 09:20:36;;;;;;;5.28;2.08;;;18.10;99.90;;;;;;5069171;28;20083;-84
2023/05/20 09:23:07;;;;;;;4.10;1.80;;;18.20;99.90;;;;;;5065911;28;20040;-83
2023/05/20 09:25:35;;;;;;;3.35;1.42;;;18.40;99.90;;;;;;5087009;28;20569;-83
2023/05/20 09:28:04;;;;;;;3.67;1.95;;;18.50;99.90;;;;;;5057430;28;20512;-85
2023/05/20 09:30:31;;;;;;;6.40;1.98;;;18.40;99.90;;;;;;5089894;28;20040;-84
2023/05/20 09:32:59;;;;;;;4.75;1.70;;;18.50;99.90;;;;;;5070060;28;20040;-83
2023/05/20 09:35:27;;;;;;;5.55;1.70;;;18.60;99.90;;;;;;5037281;28;20069;-83
2023/05/20 09:37:56;;;;;;;4.22;1.90;;;18.70;99.90;;;;;;5053912;28;20099;-83
2023/05/20 09:40:25;;;;;;;4.70;1.70;;;18.70;99.90;;;;;;5065572;28;20040;-84
2023/05/20 09:43:12;;;;;;;5.38;2.00;;;18.80;99.90;;;;;;5084024;28;20052;-84
2023/05/20 09:45:40;;;;;;;5.60;2.03;;;18.80;99.90;;;;;;5081317;28;20052;-83
2023/05/20 09:48:09;;;;;;;6.70;1.98;;;18.90;99.90;;;;;;5037847;28;20032;-83
2023/05/20 09:50:36;;;;;;;5.80;1.92;;;19.00;99.90;;;;;;5053664;28;20052;-84
2023/05/20 09:53:03;;;;;;;5.22;2.05;;;19.10;99.90;;;;;;5040090;28;20045;-83
2023/05/20 09:55:31;;;;;;;5.50;1.98;;;19.20;99.90;;;;;;5069540;28;20057;-83
2023/05/20 09:58:01;;;;;;;4.25;1.75;;;19.20;99.90;;;;;;5080210;28;20037;-84
2023/05/20 10:00:29;;;;;;;3.80;1.70;;;19.20;99.90;;;;;;5069671;28;20057;-83
2023/05/20 10:02:56;;;;;;;5.20;2.15;;;19.30;99.90;;;;;;5069657;28;20407;-83
2023/05/20 10:05:28;;;;;;;6.20;2.20;;;19.40;99.90;;;;;;5089634;28;20079;-83
2023/05/20 10:08:16;;;;;;;3.10;1.42;;;19.50;99.90;;;;;;5090093;28;20044;-84
2023/05/20 10:11:02;;;;;;;3.00;1.70;;;19.70;99.90;;;;;;5105122;28;20029;-83
2023/05/20 10:14:19;;;;;;;4.15;1.70;;;19.40;99.90;;;;;;5084723;28;20491;-82
2023/05/20 10:17:16;;;;;;;3.95;1.80;;;19.40;99.90;;;;;;5085970;28;20055;-83
2023/05/20 10:19:43;;;;;;;3.63;1.60;;;19.30;99.90;;;;;;5053497;28;20040;-81
2023/05/20 10:22:10;;;;;;;4.85;1.70;;;19.50;99.90;;;;;;5082528;28;20420;-85
2023/05/20 10:24:42;;;;;;;3.92;1.90;;;19.40;99.90;;;;;;5070344;28;20041;-85
2023/05/20 10:27:12;;;;;;;3.50;1.70;;;19.30;99.90;;;;;;5069901;28;20045;-85
2023/05/20 10:29:50;;;;;;;4.40;1.58;;;19.10;99.90;;;;;;5069990;28;20041;-85
2023/05/20 10:32:31;;;;;;;5.05;1.70;;;19.30;99.90;;;;;;5071283;28;20037;-85
2023/05/20 10:35:08;;;;;;;3.08;1.45;;;19.30;99.90;;;;;;5053603;28;20040;-85
2023/05/20 10:37:43;;;;;;;4.50;1.88;;;19.30;99.90;;;;;;5069555;28;20383;-85
2023/05/20 10:40:13;;;;;;;3.67;1.60;;;19.30;99.90;;;;;;5055691;28;20436;-85
2023/05/20 10:42:40;;;;;;;4.30;1.73;;;19.40;99.90;;;;;;5106757;28;20048;-85
2023/05/20 10:45:08;;;;;;;4.40;1.70;;;19.70;99.90;;;;;;5057479;28;20040;-85
2023/05/20 10:47:36;;;;;;;3.60;1.45;;;19.90;99.90;;;;;;5073741;28;20037;-85
2023/05/20 10:50:06;;;;;;;3.50;1.67;;;20.10;99.90;;;;;;5073792;28;20037;-85
2023/05/20 10:52:35;;;;;;;5.38;1.63;;;20.20;99.90;;;;;;5074417;28;20039;-85
2023/05/20 10:55:03;;;;;;;4.97;1.60;;;20.10;99.90;;;;;;5090064;28;20041;-85
2023/05/20 10:57:33;;;;;;;4.95;1.60;;;20.10;99.90;;;;;;5057401;28;20040;-85
2023/05/20 11:00:00;;;;;;;4.47;1.92;;;20.30;99.90;;;;;;5074011;28;20091;-84
2023/05/20 11:02:27;;;;;;;4.10;1.60;;;20.50;99.50;;;;;;5087256;28;20028;-86
2023/05/20 11:04:57;;;;;;;7.53;1.63;;;20.70;99.20;;;;;;5060207;28;20032;-85
2023/05/20 11:07:27;;;;;;;3.00;1.30;;;20.90;99.10;;;;;;5073234;28;20112;-85
2023/05/20 11:09:55;;;;;;;4.43;1.40;;;20.80;98.20;;;;;;5089797;28;20045;-85
2023/05/20 11:12:26;;;;;;;5.05;1.60;;;20.50;99.40;;;;;;5102589;28;20112;-85
2023/05/20 11:14:53;;;;;;;3.78;1.60;;;20.30;98.80;;;;;;5073586;28;20032;-85
2023/05/20 11:17:20;;;;;;;3.72;1.45;;;20.20;99.40;;;;;;5072554;28;20068;-84
2023/05/20 11:19:47;;;;;;;5.38;1.80;;;20.20;99.20;;;;;;5073228;28;20100;-85
2023/05/20 11:22:14;;;;;;;4.90;1.70;;;20.10;99.00;;;;;;5073072;28;20856;-85
2023/05/20 11:24:41;;;;;;;9.68;2.05;;;20.20;98.90;;;;;;5106417;28;20037;-85
2023/05/20 11:27:08;;;;;;;6.30;3.50;;;20.30;98.90;;;;;;5089817;28;20045;-84
2023/05/20 11:29:35;;;;;;;5.60;2.67;;;20.20;98.90;;;;;;5072938;28;20059;-84
2023/05/20 11:32:01;;;;;;;6.13;2.33;;;20.00;99.10;;;;;;5073217;28;20127;-85
2023/05/20 11:34:36;;;;;;;5.03;3.20;;;19.90;98.90;;;;;;5045958;28;20037;-84
2023/05/20 11:37:07;;;;;;;5.03;3.20;;;20.00;98.70;;;;;;5053244;28;20033;-84
2023/05/20 11:39:34;;;;;;;5.88;3.55;;;20.20;97.40;;;;;;5070206;28;20045;-84
2023/05/20 11:42:02;;;;;;;4.72;2.70;;;20.30;98.60;;;;;;5073518;28;20399;-85
2023/05/20 11:44:29;;;;;;;4.28;2.30;;;20.00;98.40;;;;;;5093561;28;20042;-84
2023/05/20 11:47:00;;;;;;;5.80;2.65;;;19.90;98.70;;;;;;5076657;28;20127;-85
2023/05/20 11:49:27;;;;;;;5.07;3.45;;;19.70;98.10;;;;;;5075973;28;20040;-84
2023/05/20 11:51:55;;;;;;;4.80;2.72;;;19.80;98.40;;;;;;5093101;28;20048;-84
2023/05/20 11:54:24;;;;;;;6.00;1.70;;;20.00;98.10;;;;;;5092503;28;20570;-85
2023/05/20 11:56:53;;;;;;;4.82;2.10;;;20.00;98.00;;;;;;5104476;28;20083;-84
2023/05/20 11:59:23;;;;;;;6.65;1.85;;;19.90;97.90;;;;;;5056822;28;20056;-84
2023/05/20 12:01:49;;;;;;;6.38;2.65;;;19.80;98.80;;;;;;5072565;28;20037;-84
2023/05/20 12:04:17;;;;;;;6.88;4.53;;;19.90;99.00;;;;;;5040458;28;20090;-84
2023/05/20 12:06:43;;;;;;;5.97;2.53;;;20.10;98.70;;;;;;5072091;28;20087;-84
2023/05/20 12:09:10;;;;;;;8.88;3.92;;;20.30;98.70;;;;;;5073198;28;20076;-84
2023/05/20 12:11:39;;;;;;;3.50;2.05;;;20.40;98.70;;;;;;5065811;28;20052;-84
2023/05/20 12:14:07;;;;;;;5.95;3.10;;;20.70;98.40;;;;;;5040299;28;20079;-84
2023/05/20 12:16:35;;;;;;;4.22;1.83;;;20.90;97.80;;;;;;5089886;28;20455;-84
2023/05/20 12:19:02;;;;;;;4.05;1.90;;;21.10;97.60;;;;;;5075442;28;20492;-83
2023/05/20 12:21:30;;;;;;;5.78;2.22;;;21.30;97.70;;;;;;5075468;28;20045;-84
2023/05/20 12:23:58;;;;;;;9.40;2.60;;;21.40;98.00;;;;;;5076309;28;20482;-84
2023/05/20 12:26:26;;;;;;;4.68;1.60;;;21.10;97.80;;;;;;5109271;28;20036;-84
2023/05/20 12:28:54;;;;;;;6.85;2.80;;;20.80;97.80;;;;;;5075577;28;20044;-84
2023/05/20 12:31:20;;;;;;;4.55;2.00;;;20.50;98.10;;;;;;5076164;28;20451;-84
2023/05/20 12:33:47;;;;;;;7.50;3.30;;;20.50;98.40;;;;;;5092465;28;20097;-84
2023/05/20 12:36:14;;;;;;;6.90;3.42;;;20.60;98.10;;;;;;5072369;28;20052;-84
2023/05/20 12:38:41;;;;;;;5.13;2.40;;;20.80;97.90;;;;;;5055653;28;20052;-84
2023/05/20 12:41:07;;;;;;;11.45;5.28;;;20.90;97.70;;;;;;5065345;28;20056;-84
2023/05/20 12:43:37;;;;;;;7.30;3.75;;;21.10;97.60;;;;;;5108878;28;20485;-84
2023/05/20 12:46:04;;;;;;;4.72;2.20;;;21.10;97.40;;;;;;5057389;28;20818;-84
2023/05/20 12:48:31;;;;;;;11.38;5.70;;;20.90;97.60;;;;;;5071405;28;20508;-83
2023/05/20 12:50:58;;;;;;;8.98;2.30;;;20.60;97.60;;;;;;5071207;28;20080;-84